createdAt,value
2023-05-06T00:01:46.205Z,3.20
2023-05-06T00:04:16.620Z,3.60
2023-05-06T00:06:44.456Z,3.20
2023-05-06T00:09:14.388Z,3.60
2023-05-06T00:11:45.843Z,3.80
2023-05-06T00:14:13.612Z,3.50
2023-05-06T00:16:43.996Z,3.70
2023-05-06T00:19:15.456Z,3.80
2023-05-06T00:21:43.457Z,3.00
2023-05-06T00:24:13.830Z,3.60
2023-05-06T00:26:41.779Z,3.20
2023-05-06T00:29:09.838Z,3.10
2023-05-06T00:31:40.918Z,3.00
2023-05-06T00:34:09.290Z,3.50
2023-05-06T00:36:37.948Z,3.20
2023-05-06T00:39:11.069Z,3.40
2023-05-06T00:41:43.782Z,3.50
2023-05-06T00:44:11.892Z,3.10
2023-05-06T00:46:39.971Z,3.00
2023-05-06T00:49:11.437Z,3.20
2023-05-06T00:51:39.366Z,3.10
2023-05-06T00:54:07.335Z,2.80
2023-05-06T00:56:42.697Z,2.90
2023-05-06T00:59:12.790Z,2.80
2023-05-06T01:01:43.249Z,3.20
2023-05-06T01:06:49.954Z,2.80
2023-05-06T07:04:08.759Z,2.30
2023-05-06T07:06:38.090Z,2.10
2023-05-06T07:09:06.779Z,2.60
2023-05-06T07:11:33.276Z,2.60
2023-05-06T07:14:02.162Z,2.20
2023-05-06T07:16:28.804Z,2.50
2023-05-06T07:18:55.687Z,2.20
2023-05-06T07:21:22.073Z,2.40
2023-05-06T07:23:51.099Z,3.10
2023-05-06T07:26:17.650Z,2.70
2023-05-06T07:28:46.440Z,2.70
2023-05-06T07:31:20.406Z,2.60
2023-05-06T07:33:49.279Z,2.70
2023-05-06T07:36:16.386Z,2.30
2023-05-06T07:38:47.477Z,2.30
2023-05-06T07:41:14.076Z,2.30
2023-05-06T07:43:45.054Z,2.40
2023-05-06T07:46:13.954Z,2.70
2023-05-06T07:48:45.346Z,2.70
2023-05-06T07:51:11.993Z,2.40
2023-05-06T07:53:40.767Z,2.60
2023-05-06T07:56:07.384Z,2.40
2023-05-06T07:58:36.737Z,2.60
2023-05-06T08:01:07.928Z,3.40
2023-05-06T08:03:37.096Z,3.00
2023-05-06T08:06:06.430Z,2.40
2023-05-06T08:08:36.192Z,2.20
2023-05-06T08:11:02.665Z,2.30
2023-05-06T08:13:32.817Z,2.20
2023-05-06T08:16:01.749Z,2.50
2023-05-06T08:18:30.547Z,2.30
2023-05-06T08:20:59.901Z,2.50
2023-05-06T08:23:30.680Z,2.50
2023-05-06T08:25:58.464Z,2.40
2023-05-06T08:28:31.760Z,2.70
2023-05-06T08:31:03.219Z,2.80
2023-05-06T08:33:32.096Z,2.30
2023-05-06T08:35:58.874Z,1.80
2023-05-06T08:38:28.121Z,2.60
2023-05-06T08:40:59.085Z,2.20
2023-05-06T08:43:27.911Z,2.60
2023-05-06T08:45:54.707Z,2.40
2023-05-06T08:48:21.155Z,2.50
2023-05-06T08:50:52.063Z,2.30
2023-05-06T08:53:21.585Z,2.50
2023-05-06T08:55:53.327Z,2.90
2023-05-06T08:58:20.854Z,2.40
2023-05-06T09:00:52.851Z,2.30
2023-05-06T09:03:21.985Z,2.50
2023-05-06T09:05:51.250Z,2.30
2023-05-06T09:08:20.314Z,2.40
2023-05-06T09:10:52.225Z,2.50
2023-05-06T09:13:19.102Z,1.90
2023-05-06T09:15:49.439Z,2.30
2023-05-06T09:18:16.346Z,2.90
2023-05-06T09:20:48.518Z,3.10
2023-05-06T09:23:18.783Z,2.70
2023-05-06T09:25:46.405Z,2.80
2023-05-06T09:28:17.414Z,2.80
2023-05-06T09:30:48.215Z,2.50
2023-05-06T09:33:15.410Z,2.30
2023-05-06T09:35:45.002Z,2.50
2023-05-06T09:38:14.074Z,3.00
2023-05-06T09:40:43.089Z,2.60
2023-05-06T09:43:16.118Z,3.00
2023-05-06T09:45:47.518Z,2.50
2023-05-06T09:48:14.487Z,2.70
2023-05-06T09:50:43.635Z,3.30
2023-05-06T09:53:14.821Z,2.70
2023-05-06T09:55:41.958Z,2.90
2023-05-06T09:58:12.623Z,2.90
2023-05-06T10:00:43.919Z,2.40
2023-05-06T10:03:17.108Z,2.70
2023-05-06T10:05:48.968Z,2.40
2023-05-06T10:08:22.185Z,2.60
2023-05-06T10:10:49.486Z,2.80
2023-05-06T10:13:25.571Z,2.70
2023-05-06T10:15:52.991Z,2.70
2023-05-06T10:18:21.207Z,3.20
2023-05-06T10:20:48.886Z,2.80
2023-05-06T10:23:39.662Z,3.00
2023-05-06T10:26:09.945Z,2.80
2023-05-06T10:28:40.400Z,2.70
2023-05-06T10:31:12.499Z,2.80
2023-05-06T10:33:47.519Z,2.60
2023-05-06T10:36:25.356Z,3.00
2023-05-06T10:38:55.926Z,2.10
2023-05-06T10:41:27.075Z,2.50
2023-05-06T10:43:59.586Z,3.20
2023-05-06T10:46:29.034Z,2.60
2023-05-06T10:49:10.737Z,2.80
2023-05-06T10:51:46.106Z,2.50
2023-05-06T10:54:18.062Z,2.20
2023-05-06T10:56:49.549Z,2.40
2023-05-06T10:59:24.900Z,2.30
2023-05-06T11:02:06.574Z,2.70
2023-05-06T11:04:34.418Z,3.80
2023-05-06T11:07:18.667Z,4.10
2023-05-06T11:09:59.596Z,3.40
2023-05-06T11:12:48.935Z,3.10
2023-05-06T11:15:43.129Z,3.00
2023-05-06T11:18:27.551Z,3.80
2023-05-06T11:21:02.308Z,3.80
2023-05-06T11:23:44.511Z,3.50
2023-05-06T11:26:14.372Z,3.50
2023-05-06T11:28:50.781Z,3.50
2023-05-06T11:31:17.742Z,5.20
2023-05-06T11:33:46.625Z,5.10
2023-05-06T11:36:20.616Z,3.80
2023-05-06T11:38:51.981Z,5.00
2023-05-06T11:41:22.685Z,4.70
2023-05-06T11:43:50.864Z,4.20
2023-05-06T11:46:22.840Z,4.50
2023-05-06T11:48:50.717Z,4.20
2023-05-06T11:51:24.112Z,5.80
2023-05-06T11:54:03.219Z,5.20
2023-05-06T11:56:53.435Z,3.70
2023-05-06T11:59:32.329Z,3.30
2023-05-06T12:02:01.102Z,3.80
2023-05-06T12:04:39.108Z,3.40
2023-05-06T12:07:07.205Z,4.20
2023-05-06T12:09:35.375Z,4.20
2023-05-06T12:12:03.824Z,3.90
2023-05-06T12:14:39.591Z,4.90
2023-05-06T12:17:12.138Z,4.80
2023-05-06T12:19:38.843Z,5.20
2023-05-06T12:22:20.221Z,5.10
2023-05-06T12:24:47.956Z,6.30
2023-05-06T12:27:32.695Z,5.40
2023-05-06T12:30:03.704Z,5.30
2023-05-06T12:32:30.997Z,4.60
2023-05-06T12:35:04.953Z,5.20
2023-05-06T12:37:31.516Z,4.70
2023-05-06T12:39:59.402Z,4.90
2023-05-06T12:42:28.858Z,4.70
2023-05-06T12:45:12.071Z,6.20
2023-05-06T12:47:51.499Z,7.50
2023-05-06T12:50:53.910Z,7.10
2023-05-06T12:53:35.033Z,6.70
2023-05-06T12:56:01.688Z,6.10
2023-05-06T12:58:36.664Z,6.70
2023-05-06T13:03:29.784Z,7.70
2023-05-06T13:05:56.770Z,8.00
2023-05-06T13:08:23.576Z,7.60
2023-05-06T14:00:07.042Z,8.30
2023-05-06T14:02:34.012Z,8.60
2023-05-06T14:05:01.408Z,7.10
2023-05-06T14:07:28.028Z,6.40
2023-05-06T14:09:59.112Z,7.00
2023-05-06T14:12:30.553Z,6.40
2023-05-06T14:14:59.389Z,6.50
2023-05-06T14:17:49.722Z,6.70
2023-05-06T14:20:17.839Z,5.70
2023-05-06T14:22:45.797Z,6.00
2023-05-06T14:25:14.576Z,5.90
2023-05-06T14:27:47.443Z,6.90
2023-05-06T14:30:15.431Z,7.40
2023-05-06T14:32:44.338Z,7.20
2023-05-06T14:35:11.376Z,9.10
2023-05-06T14:37:43.328Z,9.80
2023-05-06T14:40:15.723Z,7.20
2023-05-06T14:43:19.063Z,6.70
2023-05-06T14:45:45.913Z,7.50
2023-05-06T14:48:12.719Z,6.90
2023-05-06T14:50:39.387Z,6.10
2023-05-06T14:53:05.956Z,6.80
2023-05-06T14:55:41.521Z,6.40
2023-05-06T14:58:10.272Z,5.40
2023-05-06T15:00:39.256Z,6.00
2023-05-06T15:03:08.487Z,6.70
2023-05-06T15:05:36.515Z,6.10
2023-05-06T15:08:03.136Z,7.30
2023-05-06T15:10:32.019Z,6.50
2023-05-06T15:13:01.653Z,6.10
2023-05-06T15:15:28.298Z,6.60
2023-05-06T15:17:56.899Z,6.00
2023-05-06T15:20:26.162Z,6.20
2023-05-06T15:22:52.670Z,5.60
2023-05-06T15:25:30.929Z,5.80
2023-05-06T15:28:01.309Z,5.60
2023-05-06T15:30:34.036Z,5.80
2023-05-06T15:35:32.642Z,6.00
2023-05-06T15:37:59.619Z,5.10
2023-05-06T15:40:28.721Z,5.70
2023-05-06T15:42:58.166Z,5.90
2023-05-06T15:45:25.328Z,5.10
2023-05-06T15:47:53.502Z,5.50
2023-05-06T15:50:32.408Z,5.70
2023-05-06T15:54:25.211Z,5.30
2023-05-06T15:56:55.749Z,5.50
2023-05-06T15:59:24.688Z,5.80
2023-05-06T16:02:25.576Z,6.40
2023-05-06T16:04:40.437Z,5.80
2023-05-06T16:07:07.235Z,6.10
2023-05-06T16:09:47.485Z,6.00
2023-05-06T16:12:15.839Z,6.00
2023-05-06T16:14:42.462Z,5.70
2023-05-06T16:17:09.138Z,5.90
2023-05-06T16:19:35.899Z,6.50
2023-05-06T16:22:04.700Z,6.40
2023-05-06T16:24:33.584Z,6.70
2023-05-06T16:27:04.858Z,6.60
2023-05-06T16:29:31.642Z,6.40
2023-05-06T16:32:01.536Z,6.40
2023-05-06T16:34:28.820Z,6.30
2023-05-06T16:36:59.929Z,5.40
2023-05-06T16:39:27.716Z,5.80
2023-05-06T16:42:03.795Z,5.70
2023-05-06T16:44:30.668Z,6.10
2023-05-06T16:46:59.747Z,5.10
2023-05-06T16:49:27.396Z,5.60
2023-05-06T16:51:54.345Z,5.50
2023-05-06T16:54:21.272Z,6.00
2023-05-06T16:56:52.524Z,5.30
2023-05-06T16:59:23.224Z,5.30
2023-05-06T17:01:53.079Z,5.70
2023-05-06T17:04:20.017Z,5.00
2023-05-06T17:06:47.436Z,5.50
2023-05-06T17:09:16.732Z,5.80
2023-05-06T17:11:45.558Z,5.90
2023-05-06T17:14:14.886Z,5.50
2023-05-06T17:16:42.858Z,5.80
2023-05-06T17:19:14.237Z,5.80
2023-05-06T17:21:40.961Z,6.10
2023-05-06T17:24:07.903Z,5.80
2023-05-06T17:26:35.275Z,5.30
2023-05-06T17:29:04.468Z,6.00
2023-05-06T17:31:33.324Z,5.10
2023-05-06T17:34:01.851Z,4.80
2023-05-06T17:36:29.267Z,4.80
2023-05-06T17:39:07.624Z,5.00
2023-05-06T17:41:38.854Z,4.70
2023-05-06T17:44:06.193Z,4.60
2023-05-06T17:46:32.946Z,4.60
2023-05-06T17:48:59.699Z,4.80
2023-05-06T17:51:29.037Z,4.60
2023-05-06T17:53:57.212Z,4.40
2023-05-06T17:56:26.596Z,5.40
2023-05-06T17:58:53.217Z,5.50
2023-05-06T18:01:22.012Z,5.30
2023-05-06T18:03:51.695Z,5.70
2023-05-06T18:06:20.609Z,5.80
2023-05-06T18:08:47.213Z,5.70
2023-05-06T18:11:15.524Z,5.10
2023-05-06T18:13:46.932Z,5.30
2023-05-06T18:16:21.481Z,5.50
2023-05-06T18:18:48.337Z,5.40
2023-05-06T18:21:15.035Z,5.60
2023-05-06T18:23:44.685Z,5.20
2023-05-06T18:26:11.768Z,4.80
2023-05-06T18:29:11.310Z,4.50
2023-05-06T18:31:40.577Z,4.70
2023-05-06T18:34:10.016Z,4.70
2023-05-06T18:36:40.825Z,4.20
2023-05-06T18:39:07.735Z,5.00
2023-05-06T18:41:34.629Z,4.60
2023-05-06T18:44:06.109Z,5.70
2023-05-06T18:46:33.161Z,4.90
2023-05-06T18:49:00.367Z,4.90
2023-05-06T18:51:27.102Z,5.00
2023-05-06T18:53:53.903Z,4.90
2023-05-06T18:56:20.799Z,4.50
2023-05-06T18:58:50.200Z,4.50
2023-05-06T19:01:19.380Z,4.50
2023-05-06T19:03:51.386Z,5.30
2023-05-06T19:06:17.987Z,4.70
2023-05-06T19:08:55.236Z,5.10
2023-05-06T19:11:24.196Z,4.40
2023-05-06T19:13:51.436Z,5.00
2023-05-06T19:16:21.176Z,5.50
2023-05-06T19:18:47.916Z,5.10
2023-05-06T19:21:15.018Z,4.00
2023-05-06T19:23:44.496Z,4.20
2023-05-06T19:26:11.365Z,4.90
2023-05-06T19:28:41.274Z,6.10
2023-05-06T19:31:10.687Z,5.50
2023-05-06T19:34:00.259Z,5.10
2023-05-06T19:37:01.308Z,5.70
2023-05-06T19:39:28.281Z,5.10
2023-05-06T19:41:55.133Z,5.70
2023-05-06T19:44:24.186Z,5.70
2023-05-06T19:46:54.277Z,5.80
2023-05-06T19:49:21.132Z,5.30
2023-05-06T19:51:50.536Z,5.30
2023-05-06T19:54:18.774Z,4.90
2023-05-06T19:56:45.739Z,5.90
2023-05-06T19:59:12.519Z,5.00
2023-05-06T20:01:39.129Z,4.60
2023-05-06T20:04:05.819Z,5.10
2023-05-06T20:06:34.675Z,4.70
2023-05-06T20:09:06.615Z,5.30
2023-05-06T20:11:33.229Z,6.00
2023-05-06T20:14:00.134Z,5.80
2023-05-06T20:16:26.883Z,5.10
2023-05-06T20:18:56.178Z,5.20
2023-05-06T20:21:22.858Z,5.40
2023-05-06T20:23:49.809Z,4.70
2023-05-06T20:26:16.704Z,4.00
2023-05-06T20:28:43.511Z,4.60
2023-05-06T20:31:10.199Z,4.70
2023-05-06T20:33:37.072Z,4.30
2023-05-06T20:36:05.134Z,4.10
2023-05-06T20:38:31.930Z,4.50
2023-05-06T20:40:58.812Z,4.70
2023-05-06T20:43:32.042Z,5.10
2023-05-06T20:48:27.456Z,4.40
2023-05-06T20:50:57.118Z,4.30
2023-05-06T20:53:23.806Z,4.70
2023-05-06T20:55:50.993Z,4.00
2023-05-06T20:58:17.684Z,4.00
2023-05-06T21:00:46.524Z,4.30
2023-05-06T21:03:13.300Z,4.20
2023-05-06T21:05:40.055Z,6.60
2023-05-06T21:08:08.882Z,5.30
2023-05-06T21:10:36.187Z,5.20
2023-05-06T21:13:03.204Z,4.80
2023-05-06T21:15:31.989Z,4.50
2023-05-06T21:18:03.130Z,4.00
2023-05-06T21:20:34.554Z,4.10
2023-05-06T21:23:02.832Z,3.40
2023-05-06T21:25:29.507Z,4.50
2023-05-06T21:28:02.629Z,3.30
2023-05-06T21:30:29.446Z,3.50
2023-05-06T21:33:01.733Z,4.00
2023-05-06T21:35:31.716Z,3.80
2023-05-06T21:37:58.158Z,3.50
2023-05-06T21:40:27.463Z,3.50
2023-05-06T21:42:54.174Z,3.00
2023-05-06T21:45:23.307Z,3.80
2023-05-06T21:47:50.073Z,3.70
2023-05-06T21:50:16.911Z,3.80
2023-05-06T21:52:43.698Z,3.90
2023-05-06T21:55:10.797Z,3.30
2023-05-06T21:57:38.267Z,4.10
2023-05-06T22:00:11.030Z,3.60
2023-05-06T22:02:38.931Z,3.70
2023-05-06T22:05:07.224Z,3.90
2023-05-06T22:07:33.772Z,3.40
2023-05-06T22:10:00.322Z,3.20
2023-05-06T22:12:29.656Z,3.30
2023-05-06T22:14:56.298Z,3.40
2023-05-06T22:17:31.127Z,3.10
2023-05-06T22:20:01.900Z,3.00
2023-05-06T22:22:29.643Z,3.40
2023-05-06T22:25:04.165Z,3.30
2023-05-06T22:27:30.940Z,3.30
2023-05-06T22:29:57.757Z,3.30
2023-05-06T22:32:26.861Z,3.30
2023-05-06T22:34:53.736Z,3.20
2023-05-06T22:37:20.348Z,3.40
2023-05-06T22:39:46.882Z,3.30
2023-05-06T22:42:13.379Z,3.20
2023-05-06T22:44:44.860Z,3.20
2023-05-06T22:47:15.774Z,3.70
2023-05-06T22:49:42.417Z,3.90
2023-05-06T22:52:09.130Z,3.60
2023-05-06T22:54:37.903Z,3.50
2023-05-06T22:57:04.388Z,2.90
2023-05-06T22:59:30.862Z,2.70
2023-05-06T23:01:59.515Z,3.20
2023-05-06T23:04:28.247Z,3.40
2023-05-06T23:06:59.297Z,3.50
2023-05-06T23:09:30.755Z,3.10
2023-05-06T23:12:02.044Z,3.40
2023-05-06T23:14:28.483Z,3.30
2023-05-06T23:16:59.584Z,2.90
2023-05-06T23:19:26.213Z,2.90
2023-05-06T23:21:52.997Z,3.20
2023-05-06T23:24:21.985Z,3.40
2023-05-06T23:26:48.669Z,3.00
2023-05-06T23:29:17.445Z,2.80
2023-05-06T23:31:46.182Z,3.30
2023-05-06T23:34:15.256Z,3.00
2023-05-06T23:36:44.280Z,3.00
2023-05-06T23:39:11.551Z,3.00
2023-05-06T23:41:38.200Z,2.70
2023-05-06T23:44:07.042Z,2.90
2023-05-06T23:46:33.876Z,3.00
2023-05-06T23:49:00.660Z,3.60
2023-05-06T23:51:27.152Z,3.40
2023-05-06T23:53:56.384Z,3.10
2023-05-06T23:56:25.044Z,3.20
2023-05-06T23:58:51.908Z,3.20
